« 捜索 滑川市 2020/5/23 sat | トップページ | 懐古蔵出:瀬長島 那覇空港 2001/12/9 sun »

2020/05/26

定点 富山空港他 2020/5/26 tue

緊急事態宣言が解除されたとは言え、社会生活が以前の様に戻るはずもなく、まだまだ空港は閑古鳥が鳴いています。さて、昨日新潟の第九管区から大和堆へ保安船団が出航したとのことで、地元連の動向を確認に廻ってみた。

RJNT 260000Z VRB02KT 9999 FEW015 BKN/// 23/18 Q1008

20200526_fushiki_00ps203

PS203「のりくら」さんは在港

20200526_fushiki_01bird

釣りのおじさんが投げたお魚で朝食中の烏さん

20200526_fushiki_02bird

この子も欲しそうに眺めていましたが・・

20200526_fushiki_03ps203

烏さんが一寸目を離した隙にトンビさんがさらっていきました。

20200526_fushiki_04toyomaru33

第三十三東洋丸 大和海運(旭タンカー) JD3728

20200526_fushiki_05ps203

「のりくら」さんから搭載ボートが降ろされて

20200526_fushiki_06ps203

ボートの操縦訓練の模様です。

20200526_fushiki_07tateyama

伏木税関の監視船「たてやま」出航です。

20200526_fushiki_08tateyama

動いているのを見れてラッキー。それにしても万葉埠頭に建設中のコレ、何もの?

20200526_fushiki_09fushikilh

伏木指向灯

20200526_fushiki_10ps203m1

丁度沖合に海保ボート

20200526_fushiki_11ps203m1

スラロームで波を蹴立ててGO

20200526_fushiki_12fushikilh

今年の夏の海のイベントは、すでに中止が決まっています。

RJNT 260100Z 36006KT 280V040 9999 FEW020 BKN025 BKN/// 24/18 Q1008

20200526_fushiki_13kaioumaru

海王丸は、公開が再開しています。

20200526_fushiki_14kaioumaru

それでも人影は少なく、ひっそり。

20200526_fushiki_15pl04

PL04「やひこ」さん

これにて海は終わりにして、河原に転戦。

19RJNT 260200Z 28005KT 230V340 9999 FEW020 SCT025 OVC/// 24/17 Q1007

20200526_rjnt_00ja17ac

「つるぎ」さんの到着を待っていたら、ドクヘリ事案

20200526_rjnt_01ja139t

お山を廻ってきた模様。

20200526_rjnt_02ja139t

JA139T AW139 富山県警察

20200526_rjnt_03ja17ac

ドクヘリ事案に急行

20200526_rjnt_04ja17ac

収容され、県中搬送

###

 

###

20200526_rjnt_05fdp

今回は、南部出張所コンビ

RJNT 260300Z 33006KT 290V360 9999 FEW020 SCT030 OVC/// 25/17 Q1007

20200526_rjnt_06ja6512

JA6512↓ AS350B3 AKF

RJNT 260500Z 28011KT 9999 VCSH FEW020 SCT030 OVC/// 25/18 Q1007

20200526_rjnt_07ja9439

JA9439 Fuji204B-2 SNK RJNT↓

お家に帰ったら、遠くから地獄の黙示録。アビームに来ると単なるエンジン音だけになっちゃいますけど。

|

« 捜索 滑川市 2020/5/23 sat | トップページ | 懐古蔵出:瀬長島 那覇空港 2001/12/9 sun »

lighthouse」カテゴリの記事

富山空港」カテゴリの記事

場外」カテゴリの記事

警務消防」カテゴリの記事

海上保安庁」カテゴリの記事

コメント

コメントを書く



(ウェブ上には掲載しません)


コメントは記事投稿者が公開するまで表示されません。



« 捜索 滑川市 2020/5/23 sat | トップページ | 懐古蔵出:瀬長島 那覇空港 2001/12/9 sun »